sensor_id;sensor_type;location;lat;lon;timestamp;P1;durP1;ratioP1;P2;durP2;ratioP2
4895;SDS011;2463;49.948;8.472;2024-01-16T00:02:13;90.15;;;6.28;;
4895;SDS011;2463;49.948;8.472;2024-01-16T00:04:39;89.82;;;6.10;;
4895;SDS011;2463;49.948;8.472;2024-01-16T00:07:07;93.70;;;6.72;;
4895;SDS011;2463;49.948;8.472;2024-01-16T00:09:34;90.85;;;6.30;;
4895;SDS011;2463;49.948;8.472;2024-01-16T00:12:01;90.72;;;6.28;;
4895;SDS011;2463;49.948;8.472;2024-01-16T00:14:30;90.72;;;6.45;;
4895;SDS011;2463;49.948;8.472;2024-01-16T00:16:57;92.75;;;6.70;;
4895;SDS011;2463;49.948;8.472;2024-01-16T00:19:23;91.13;;;6.25;;
4895;SDS011;2463;49.948;8.472;2024-01-16T00:21:50;89.40;;;6.30;;
4895;SDS011;2463;49.948;8.472;2024-01-16T00:24:17;95.53;;;6.85;;
4895;SDS011;2463;49.948;8.472;2024-01-16T00:26:44;91.80;;;6.40;;
4895;SDS011;2463;49.948;8.472;2024-01-16T00:29:11;90.32;;;6.30;;
4895;SDS011;2463;49.948;8.472;2024-01-16T00:31:39;92.47;;;7.50;;
4895;SDS011;2463;49.948;8.472;2024-01-16T00:34:05;93.18;;;6.55;;
4895;SDS011;2463;49.948;8.472;2024-01-16T00:36:32;89.93;;;6.20;;
4895;SDS011;2463;49.948;8.472;2024-01-16T00:38:59;91.15;;;6.70;;
4895;SDS011;2463;49.948;8.472;2024-01-16T00:41:25;90.97;;;5.80;;
4895;SDS011;2463;49.948;8.472;2024-01-16T00:43:54;89.63;;;6.03;;
4895;SDS011;2463;49.948;8.472;2024-01-16T00:46:21;91.88;;;6.40;;
4895;SDS011;2463;49.948;8.472;2024-01-16T00:48:47;93.45;;;6.97;;
4895;SDS011;2463;49.948;8.472;2024-01-16T00:51:14;94.40;;;6.57;;
4895;SDS011;2463;49.948;8.472;2024-01-16T00:53:41;92.95;;;6.60;;
4895;SDS011;2463;49.948;8.472;2024-01-16T00:56:09;90.03;;;6.30;;
4895;SDS011;2463;49.948;8.472;2024-01-16T00:58:36;91.03;;;7.15;;
4895;SDS011;2463;49.948;8.472;2024-01-16T01:01:03;91.70;;;6.22;;
4895;SDS011;2463;49.948;8.472;2024-01-16T01:03:29;93.88;;;6.45;;
4895;SDS011;2463;49.948;8.472;2024-01-16T01:05:56;91.10;;;6.22;;
4895;SDS011;2463;49.948;8.472;2024-01-16T01:08:24;92.47;;;6.68;;
4895;SDS011;2463;49.948;8.472;2024-01-16T01:10:51;93.18;;;6.28;;
4895;SDS011;2463;49.948;8.472;2024-01-16T01:13:17;90.72;;;6.78;;
4895;SDS011;2463;49.948;8.472;2024-01-16T01:15:44;92.65;;;6.88;;
4895;SDS011;2463;49.948;8.472;2024-01-16T01:18:11;92.55;;;7.10;;
4895;SDS011;2463;49.948;8.472;2024-01-16T01:20:38;90.72;;;6.30;;
4895;SDS011;2463;49.948;8.472;2024-01-16T01:23:05;90.93;;;6.20;;
4895;SDS011;2463;49.948;8.472;2024-01-16T01:25:32;93.45;;;6.70;;
4895;SDS011;2463;49.948;8.472;2024-01-16T01:27:58;89.32;;;6.30;;
4895;SDS011;2463;49.948;8.472;2024-01-16T01:30:25;92.32;;;6.50;;
4895;SDS011;2463;49.948;8.472;2024-01-16T01:32:52;92.85;;;6.82;;
4895;SDS011;2463;49.948;8.472;2024-01-16T01:35:19;91.05;;;6.90;;
4895;SDS011;2463;49.948;8.472;2024-01-16T01:37:46;90.78;;;6.63;;
4895;SDS011;2463;49.948;8.472;2024-01-16T01:40:12;91.15;;;6.93;;
4895;SDS011;2463;49.948;8.472;2024-01-16T01:42:42;90.63;;;6.68;;
4895;SDS011;2463;49.948;8.472;2024-01-16T01:45:09;93.13;;;6.70;;
4895;SDS011;2463;49.948;8.472;2024-01-16T01:47:40;91.57;;;6.65;;
4895;SDS011;2463;49.948;8.472;2024-01-16T01:50:09;93.95;;;7.18;;
4895;SDS011;2463;49.948;8.472;2024-01-16T01:52:37;90.47;;;7.03;;
4895;SDS011;2463;49.948;8.472;2024-01-16T01:55:10;90.93;;;7.10;;
4895;SDS011;2463;49.948;8.472;2024-01-16T01:57:38;94.05;;;6.60;;
4895;SDS011;2463;49.948;8.472;2024-01-16T02:00:06;89.78;;;6.60;;
4895;SDS011;2463;49.948;8.472;2024-01-16T02:02:33;91.95;;;7.13;;
4895;SDS011;2463;49.948;8.472;2024-01-16T02:05:00;90.38;;;7.00;;
4895;SDS011;2463;49.948;8.472;2024-01-16T02:07:27;92.43;;;6.60;;
4895;SDS011;2463;49.948;8.472;2024-01-16T02:09:55;91.40;;;6.55;;
4895;SDS011;2463;49.948;8.472;2024-01-16T02:12:21;100.00;;;7.28;;
4895;SDS011;2463;49.948;8.472;2024-01-16T02:14:51;90.07;;;6.40;;
4895;SDS011;2463;49.948;8.472;2024-01-16T02:17:17;93.03;;;7.55;;
4895;SDS011;2463;49.948;8.472;2024-01-16T02:19:44;95.03;;;7.15;;
4895;SDS011;2463;49.948;8.472;2024-01-16T02:22:12;93.78;;;6.50;;
4895;SDS011;2463;49.948;8.472;2024-01-16T02:24:42;91.78;;;6.60;;
4895;SDS011;2463;49.948;8.472;2024-01-16T02:27:09;90.60;;;6.60;;
4895;SDS011;2463;49.948;8.472;2024-01-16T02:29:40;90.25;;;6.63;;
4895;SDS011;2463;49.948;8.472;2024-01-16T02:32:10;92.07;;;6.85;;
4895;SDS011;2463;49.948;8.472;2024-01-16T02:34:39;91.90;;;6.90;;
4895;SDS011;2463;49.948;8.472;2024-01-16T02:37:05;93.75;;;7.18;;
4895;SDS011;2463;49.948;8.472;2024-01-16T02:39:32;97.18;;;6.70;;
4895;SDS011;2463;49.948;8.472;2024-01-16T02:41:59;94.63;;;6.63;;
4895;SDS011;2463;49.948;8.472;2024-01-16T02:44:25;96.80;;;7.35;;
4895;SDS011;2463;49.948;8.472;2024-01-16T02:46:52;91.57;;;6.80;;
4895;SDS011;2463;49.948;8.472;2024-01-16T02:49:19;93.13;;;7.43;;
4895;SDS011;2463;49.948;8.472;2024-01-16T02:51:46;94.20;;;7.47;;
4895;SDS011;2463;49.948;8.472;2024-01-16T02:54:13;94.32;;;6.60;;
4895;SDS011;2463;49.948;8.472;2024-01-16T02:56:40;93.15;;;6.75;;
4895;SDS011;2463;49.948;8.472;2024-01-16T02:59:06;91.43;;;6.68;;
4895;SDS011;2463;49.948;8.472;2024-01-16T03:01:33;93.72;;;6.90;;
4895;SDS011;2463;49.948;8.472;2024-01-16T03:04:00;88.75;;;5.95;;
4895;SDS011;2463;49.948;8.472;2024-01-16T03:06:27;90.95;;;6.80;;
4895;SDS011;2463;49.948;8.472;2024-01-16T03:08:55;91.43;;;6.95;;
4895;SDS011;2463;49.948;8.472;2024-01-16T03:11:22;91.53;;;6.53;;
4895;SDS011;2463;49.948;8.472;2024-01-16T03:13:49;99.45;;;7.00;;
4895;SDS011;2463;49.948;8.472;2024-01-16T03:16:19;90.22;;;6.38;;
4895;SDS011;2463;49.948;8.472;2024-01-16T03:18:46;96.85;;;7.00;;
4895;SDS011;2463;49.948;8.472;2024-01-16T03:21:13;90.00;;;6.18;;
4895;SDS011;2463;49.948;8.472;2024-01-16T03:23:40;91.50;;;6.38;;
4895;SDS011;2463;49.948;8.472;2024-01-16T03:26:11;90.82;;;6.50;;
4895;SDS011;2463;49.948;8.472;2024-01-16T03:28:38;93.95;;;6.40;;
4895;SDS011;2463;49.948;8.472;2024-01-16T03:31:06;91.97;;;6.30;;
4895;SDS011;2463;49.948;8.472;2024-01-16T03:33:33;90.45;;;7.00;;
4895;SDS011;2463;49.948;8.472;2024-01-16T03:36:01;90.43;;;6.60;;
4895;SDS011;2463;49.948;8.472;2024-01-16T03:38:28;91.55;;;6.80;;
4895;SDS011;2463;49.948;8.472;2024-01-16T03:40:55;91.95;;;6.75;;
4895;SDS011;2463;49.948;8.472;2024-01-16T03:43:22;90.38;;;6.50;;
4895;SDS011;2463;49.948;8.472;2024-01-16T03:45:48;90.65;;;6.60;;
4895;SDS011;2463;49.948;8.472;2024-01-16T03:48:15;96.97;;;6.50;;
4895;SDS011;2463;49.948;8.472;2024-01-16T03:50:42;90.10;;;6.75;;
4895;SDS011;2463;49.948;8.472;2024-01-16T03:53:10;96.63;;;7.28;;
4895;SDS011;2463;49.948;8.472;2024-01-16T03:55:37;93.53;;;7.10;;
4895;SDS011;2463;49.948;8.472;2024-01-16T03:58:03;91.88;;;6.90;;
4895;SDS011;2463;49.948;8.472;2024-01-16T04:00:30;91.65;;;6.53;;
4895;SDS011;2463;49.948;8.472;2024-01-16T04:02:57;95.50;;;6.88;;
4895;SDS011;2463;49.948;8.472;2024-01-16T04:05:23;91.07;;;6.38;;
4895;SDS011;2463;49.948;8.472;2024-01-16T04:07:50;95.88;;;8.55;;
4895;SDS011;2463;49.948;8.472;2024-01-16T04:10:17;95.05;;;7.75;;
4895;SDS011;2463;49.948;8.472;2024-01-16T04:12:43;90.78;;;6.60;;
4895;SDS011;2463;49.948;8.472;2024-01-16T04:15:10;92.05;;;7.03;;
4895;SDS011;2463;49.948;8.472;2024-01-16T04:17:37;95.15;;;8.05;;
4895;SDS011;2463;49.948;8.472;2024-01-16T04:20:04;96.53;;;7.25;;
4895;SDS011;2463;49.948;8.472;2024-01-16T04:22:33;91.18;;;7.00;;
4895;SDS011;2463;49.948;8.472;2024-01-16T04:24:59;90.18;;;6.80;;
4895;SDS011;2463;49.948;8.472;2024-01-16T04:27:26;92.55;;;7.00;;
4895;SDS011;2463;49.948;8.472;2024-01-16T04:29:53;92.22;;;6.63;;
4895;SDS011;2463;49.948;8.472;2024-01-16T04:32:19;90.82;;;6.35;;
4895;SDS011;2463;49.948;8.472;2024-01-16T04:34:46;108.25;;;6.47;;
4895;SDS011;2463;49.948;8.472;2024-01-16T04:37:13;89.97;;;6.45;;
4895;SDS011;2463;49.948;8.472;2024-01-16T04:39:39;90.18;;;6.53;;
4895;SDS011;2463;49.948;8.472;2024-01-16T04:42:06;92.45;;;6.50;;
4895;SDS011;2463;49.948;8.472;2024-01-16T04:44:33;91.32;;;7.07;;
4895;SDS011;2463;49.948;8.472;2024-01-16T04:46:59;90.40;;;6.95;;
4895;SDS011;2463;49.948;8.472;2024-01-16T04:49:26;88.93;;;6.03;;
4895;SDS011;2463;49.948;8.472;2024-01-16T04:51:53;95.32;;;6.60;;
4895;SDS011;2463;49.948;8.472;2024-01-16T04:54:20;93.68;;;7.15;;
4895;SDS011;2463;49.948;8.472;2024-01-16T04:56:46;90.40;;;6.45;;
4895;SDS011;2463;49.948;8.472;2024-01-16T04:59:13;92.45;;;7.05;;
4895;SDS011;2463;49.948;8.472;2024-01-16T05:01:42;89.93;;;6.03;;
4895;SDS011;2463;49.948;8.472;2024-01-16T05:04:08;95.20;;;6.20;;
4895;SDS011;2463;49.948;8.472;2024-01-16T05:06:36;91.13;;;6.75;;
4895;SDS011;2463;49.948;8.472;2024-01-16T05:09:03;95.47;;;6.75;;
4895;SDS011;2463;49.948;8.472;2024-01-16T05:11:30;90.50;;;6.70;;
4895;SDS011;2463;49.948;8.472;2024-01-16T05:13:56;93.30;;;7.55;;
4895;SDS011;2463;49.948;8.472;2024-01-16T05:16:24;93.60;;;6.85;;
4895;SDS011;2463;49.948;8.472;2024-01-16T05:18:52;94.25;;;6.85;;
4895;SDS011;2463;49.948;8.472;2024-01-16T05:21:20;91.18;;;6.50;;
4895;SDS011;2463;49.948;8.472;2024-01-16T05:23:47;95.43;;;7.47;;
4895;SDS011;2463;49.948;8.472;2024-01-16T05:26:13;94.10;;;6.80;;
4895;SDS011;2463;49.948;8.472;2024-01-16T05:28:40;95.20;;;7.47;;
4895;SDS011;2463;49.948;8.472;2024-01-16T05:31:07;95.25;;;8.00;;
4895;SDS011;2463;49.948;8.472;2024-01-16T05:33:33;92.78;;;7.25;;
4895;SDS011;2463;49.948;8.472;2024-01-16T05:36:00;91.47;;;7.50;;
4895;SDS011;2463;49.948;8.472;2024-01-16T05:38:28;94.07;;;7.50;;
4895;SDS011;2463;49.948;8.472;2024-01-16T05:40:55;91.55;;;7.65;;
4895;SDS011;2463;49.948;8.472;2024-01-16T05:43:21;93.65;;;6.85;;
4895;SDS011;2463;49.948;8.472;2024-01-16T05:45:48;92.65;;;7.15;;
4895;SDS011;2463;49.948;8.472;2024-01-16T05:48:16;97.35;;;7.45;;
4895;SDS011;2463;49.948;8.472;2024-01-16T05:50:43;91.60;;;6.85;;
4895;SDS011;2463;49.948;8.472;2024-01-16T05:53:09;96.22;;;7.50;;
4895;SDS011;2463;49.948;8.472;2024-01-16T05:55:36;95.68;;;7.18;;
4895;SDS011;2463;49.948;8.472;2024-01-16T05:58:03;92.68;;;7.55;;
4895;SDS011;2463;49.948;8.472;2024-01-16T06:00:30;91.57;;;7.10;;
4895;SDS011;2463;49.948;8.472;2024-01-16T06:02:57;91.75;;;7.28;;
4895;SDS011;2463;49.948;8.472;2024-01-16T06:05:23;91.13;;;7.45;;
4895;SDS011;2463;49.948;8.472;2024-01-16T06:07:51;99.03;;;9.13;;
4895;SDS011;2463;49.948;8.472;2024-01-16T06:10:18;93.90;;;8.15;;
4895;SDS011;2463;49.948;8.472;2024-01-16T06:12:45;93.65;;;7.38;;
4895;SDS011;2463;49.948;8.472;2024-01-16T06:15:11;92.60;;;7.00;;
4895;SDS011;2463;49.948;8.472;2024-01-16T06:17:38;95.00;;;7.43;;
4895;SDS011;2463;49.948;8.472;2024-01-16T06:20:05;95.13;;;7.07;;
4895;SDS011;2463;49.948;8.472;2024-01-16T06:22:33;94.43;;;8.05;;
4895;SDS011;2463;49.948;8.472;2024-01-16T06:24:59;92.90;;;7.65;;
4895;SDS011;2463;49.948;8.472;2024-01-16T06:27:27;93.47;;;7.38;;
4895;SDS011;2463;49.948;8.472;2024-01-16T06:29:54;90.43;;;6.65;;
4895;SDS011;2463;49.948;8.472;2024-01-16T06:32:21;102.50;;;8.10;;
4895;SDS011;2463;49.948;8.472;2024-01-16T06:34:48;92.47;;;7.72;;
4895;SDS011;2463;49.948;8.472;2024-01-16T06:37:14;92.55;;;7.82;;
4895;SDS011;2463;49.948;8.472;2024-01-16T06:39:41;99.70;;;7.70;;
4895;SDS011;2463;49.948;8.472;2024-01-16T06:42:08;94.35;;;7.60;;
4895;SDS011;2463;49.948;8.472;2024-01-16T06:44:36;94.03;;;7.90;;
4895;SDS011;2463;49.948;8.472;2024-01-16T06:47:04;92.13;;;7.95;;
4895;SDS011;2463;49.948;8.472;2024-01-16T06:49:31;99.03;;;8.57;;
4895;SDS011;2463;49.948;8.472;2024-01-16T06:51:58;105.40;;;8.32;;
4895;SDS011;2463;49.948;8.472;2024-01-16T06:54:24;93.00;;;7.65;;
4895;SDS011;2463;49.948;8.472;2024-01-16T06:56:52;95.40;;;7.95;;
4895;SDS011;2463;49.948;8.472;2024-01-16T06:59:18;104.30;;;7.97;;
4895;SDS011;2463;49.948;8.472;2024-01-16T07:01:46;100.10;;;8.40;;
4895;SDS011;2463;49.948;8.472;2024-01-16T07:04:12;95.82;;;8.77;;
4895;SDS011;2463;49.948;8.472;2024-01-16T07:06:40;92.60;;;7.95;;
4895;SDS011;2463;49.948;8.472;2024-01-16T07:09:07;96.32;;;8.00;;
4895;SDS011;2463;49.948;8.472;2024-01-16T07:11:37;98.38;;;8.30;;
4895;SDS011;2463;49.948;8.472;2024-01-16T07:14:06;96.35;;;8.63;;
4895;SDS011;2463;49.948;8.472;2024-01-16T07:16:34;94.32;;;9.40;;
4895;SDS011;2463;49.948;8.472;2024-01-16T07:19:01;96.10;;;8.23;;
4895;SDS011;2463;49.948;8.472;2024-01-16T07:21:28;94.40;;;8.77;;
4895;SDS011;2463;49.948;8.472;2024-01-16T07:23:55;96.35;;;9.32;;
4895;SDS011;2463;49.948;8.472;2024-01-16T07:26:22;96.53;;;8.98;;
4895;SDS011;2463;49.948;8.472;2024-01-16T07:28:49;101.80;;;8.70;;
4895;SDS011;2463;49.948;8.472;2024-01-16T07:31:16;99.55;;;9.55;;
4895;SDS011;2463;49.948;8.472;2024-01-16T07:33:43;95.10;;;8.40;;
4895;SDS011;2463;49.948;8.472;2024-01-16T07:36:10;95.47;;;9.00;;
4895;SDS011;2463;49.948;8.472;2024-01-16T07:38:38;113.65;;;9.23;;
4895;SDS011;2463;49.948;8.472;2024-01-16T07:41:04;105.38;;;8.50;;
4895;SDS011;2463;49.948;8.472;2024-01-16T07:43:31;93.25;;;7.72;;
4895;SDS011;2463;49.948;8.472;2024-01-16T07:45:59;91.85;;;7.50;;
4895;SDS011;2463;49.948;8.472;2024-01-16T07:48:26;96.97;;;7.78;;
4895;SDS011;2463;49.948;8.472;2024-01-16T07:50:53;98.70;;;9.32;;
4895;SDS011;2463;49.948;8.472;2024-01-16T07:53:19;94.38;;;9.00;;
4895;SDS011;2463;49.948;8.472;2024-01-16T07:55:46;94.95;;;7.97;;
4895;SDS011;2463;49.948;8.472;2024-01-16T07:58:13;93.78;;;8.60;;
4895;SDS011;2463;49.948;8.472;2024-01-16T08:00:40;94.80;;;9.52;;
4895;SDS011;2463;49.948;8.472;2024-01-16T08:03:07;94.75;;;8.45;;
4895;SDS011;2463;49.948;8.472;2024-01-16T08:05:37;94.00;;;8.20;;
4895;SDS011;2463;49.948;8.472;2024-01-16T08:08:04;95.47;;;8.30;;
4895;SDS011;2463;49.948;8.472;2024-01-16T08:10:31;96.13;;;9.30;;
4895;SDS011;2463;49.948;8.472;2024-01-16T08:12:58;94.35;;;8.75;;
4895;SDS011;2463;49.948;8.472;2024-01-16T08:15:25;97.95;;;7.90;;
4895;SDS011;2463;49.948;8.472;2024-01-16T08:17:51;95.53;;;7.93;;
4895;SDS011;2463;49.948;8.472;2024-01-16T08:20:18;93.05;;;7.50;;
4895;SDS011;2463;49.948;8.472;2024-01-16T08:22:45;96.28;;;8.10;;
4895;SDS011;2463;49.948;8.472;2024-01-16T08:25:12;97.45;;;8.48;;
4895;SDS011;2463;49.948;8.472;2024-01-16T08:27:38;97.28;;;8.70;;
4895;SDS011;2463;49.948;8.472;2024-01-16T08:30:05;93.28;;;7.80;;
4895;SDS011;2463;49.948;8.472;2024-01-16T08:32:33;94.78;;;8.05;;
4895;SDS011;2463;49.948;8.472;2024-01-16T08:35:00;92.90;;;7.57;;
4895;SDS011;2463;49.948;8.472;2024-01-16T08:37:27;94.80;;;8.48;;
4895;SDS011;2463;49.948;8.472;2024-01-16T08:39:53;95.60;;;8.95;;
4895;SDS011;2463;49.948;8.472;2024-01-16T08:42:20;92.47;;;7.82;;
4895;SDS011;2463;49.948;8.472;2024-01-16T08:44:46;93.45;;;8.20;;
4895;SDS011;2463;49.948;8.472;2024-01-16T08:47:13;91.90;;;7.55;;
4895;SDS011;2463;49.948;8.472;2024-01-16T08:49:40;101.13;;;9.00;;
4895;SDS011;2463;49.948;8.472;2024-01-16T08:52:07;93.60;;;8.07;;
4895;SDS011;2463;49.948;8.472;2024-01-16T08:54:33;102.18;;;8.45;;
4895;SDS011;2463;49.948;8.472;2024-01-16T08:57:00;95.93;;;8.65;;
4895;SDS011;2463;49.948;8.472;2024-01-16T08:59:27;102.53;;;7.97;;
4895;SDS011;2463;49.948;8.472;2024-01-16T09:01:54;94.82;;;9.13;;
4895;SDS011;2463;49.948;8.472;2024-01-16T09:04:21;94.53;;;8.05;;
4895;SDS011;2463;49.948;8.472;2024-01-16T09:06:49;95.18;;;8.10;;
4895;SDS011;2463;49.948;8.472;2024-01-16T09:09:16;93.28;;;8.30;;
4895;SDS011;2463;49.948;8.472;2024-01-16T09:11:42;94.15;;;8.00;;
4895;SDS011;2463;49.948;8.472;2024-01-16T09:14:09;93.22;;;8.00;;
4895;SDS011;2463;49.948;8.472;2024-01-16T09:16:36;97.40;;;8.10;;
4895;SDS011;2463;49.948;8.472;2024-01-16T09:19:02;99.88;;;8.65;;
4895;SDS011;2463;49.948;8.472;2024-01-16T09:21:29;92.80;;;7.50;;
4895;SDS011;2463;49.948;8.472;2024-01-16T09:23:56;94.80;;;8.50;;
4895;SDS011;2463;49.948;8.472;2024-01-16T09:26:23;93.63;;;8.10;;
4895;SDS011;2463;49.948;8.472;2024-01-16T09:28:49;93.00;;;8.45;;
4895;SDS011;2463;49.948;8.472;2024-01-16T09:31:16;96.75;;;8.05;;
4895;SDS011;2463;49.948;8.472;2024-01-16T09:33:43;98.72;;;7.82;;
4895;SDS011;2463;49.948;8.472;2024-01-16T09:36:10;97.05;;;8.13;;
4895;SDS011;2463;49.948;8.472;2024-01-16T09:38:36;93.60;;;7.28;;
4895;SDS011;2463;49.948;8.472;2024-01-16T09:41:03;93.35;;;8.73;;
4895;SDS011;2463;49.948;8.472;2024-01-16T09:43:30;95.15;;;8.60;;
4895;SDS011;2463;49.948;8.472;2024-01-16T09:46:00;99.63;;;8.65;;
4895;SDS011;2463;49.948;8.472;2024-01-16T09:48:28;95.30;;;9.05;;
4895;SDS011;2463;49.948;8.472;2024-01-16T09:50:58;95.00;;;8.75;;
4895;SDS011;2463;49.948;8.472;2024-01-16T09:53:24;97.22;;;9.30;;
4895;SDS011;2463;49.948;8.472;2024-01-16T09:55:52;91.85;;;7.45;;
4895;SDS011;2463;49.948;8.472;2024-01-16T09:58:22;98.15;;;7.68;;
4895;SDS011;2463;49.948;8.472;2024-01-16T10:00:51;93.82;;;7.70;;
4895;SDS011;2463;49.948;8.472;2024-01-16T10:03:18;93.03;;;7.95;;
4895;SDS011;2463;49.948;8.472;2024-01-16T10:05:45;97.45;;;8.05;;
4895;SDS011;2463;49.948;8.472;2024-01-16T10:08:15;100.07;;;7.80;;
4895;SDS011;2463;49.948;8.472;2024-01-16T10:10:41;94.13;;;8.20;;
4895;SDS011;2463;49.948;8.472;2024-01-16T10:13:15;97.18;;;7.95;;
4895;SDS011;2463;49.948;8.472;2024-01-16T10:15:43;100.38;;;9.07;;
4895;SDS011;2463;49.948;8.472;2024-01-16T10:18:23;91.53;;;7.18;;
4895;SDS011;2463;49.948;8.472;2024-01-16T10:20:53;93.30;;;7.22;;
4895;SDS011;2463;49.948;8.472;2024-01-16T10:23:26;92.60;;;7.13;;
4895;SDS011;2463;49.948;8.472;2024-01-16T10:28:33;114.22;;;9.90;;
4895;SDS011;2463;49.948;8.472;2024-01-16T10:31:01;96.10;;;8.35;;
4895;SDS011;2463;49.948;8.472;2024-01-16T10:33:29;96.28;;;7.70;;
4895;SDS011;2463;49.948;8.472;2024-01-16T10:38:39;97.25;;;8.48;;
4895;SDS011;2463;49.948;8.472;2024-01-16T10:41:10;93.30;;;7.40;;
4895;SDS011;2463;49.948;8.472;2024-01-16T10:43:38;94.28;;;8.45;;
4895;SDS011;2463;49.948;8.472;2024-01-16T10:46:09;96.72;;;8.68;;
4895;SDS011;2463;49.948;8.472;2024-01-16T10:48:38;94.25;;;7.30;;
4895;SDS011;2463;49.948;8.472;2024-01-16T10:51:08;103.07;;;8.15;;
4895;SDS011;2463;49.948;8.472;2024-01-16T10:53:39;92.63;;;7.32;;
4895;SDS011;2463;49.948;8.472;2024-01-16T10:56:12;92.80;;;7.47;;
4895;SDS011;2463;49.948;8.472;2024-01-16T10:58:40;95.30;;;8.57;;
4895;SDS011;2463;49.948;8.472;2024-01-16T11:01:15;93.63;;;7.07;;
4895;SDS011;2463;49.948;8.472;2024-01-16T11:03:46;93.65;;;7.22;;
4895;SDS011;2463;49.948;8.472;2024-01-16T11:06:17;93.03;;;7.43;;
4895;SDS011;2463;49.948;8.472;2024-01-16T11:08:45;104.38;;;7.75;;
4895;SDS011;2463;49.948;8.472;2024-01-16T11:11:13;94.15;;;8.95;;
4895;SDS011;2463;49.948;8.472;2024-01-16T11:13:41;99.93;;;7.20;;
4895;SDS011;2463;49.948;8.472;2024-01-16T11:16:10;96.88;;;8.02;;
4895;SDS011;2463;49.948;8.472;2024-01-16T11:18:37;94.65;;;7.55;;
4895;SDS011;2463;49.948;8.472;2024-01-16T11:21:06;96.28;;;7.57;;
4895;SDS011;2463;49.948;8.472;2024-01-16T11:23:39;93.55;;;7.63;;
4895;SDS011;2463;49.948;8.472;2024-01-16T11:28:59;93.28;;;8.07;;
4895;SDS011;2463;49.948;8.472;2024-01-16T11:34:00;91.28;;;6.65;;
4895;SDS011;2463;49.948;8.472;2024-01-16T11:39:21;91.10;;;6.20;;
4895;SDS011;2463;49.948;8.472;2024-01-16T11:41:52;93.80;;;6.68;;
4895;SDS011;2463;49.948;8.472;2024-01-16T11:44:36;92.40;;;6.47;;
4895;SDS011;2463;49.948;8.472;2024-01-16T11:47:04;92.78;;;6.75;;
4895;SDS011;2463;49.948;8.472;2024-01-16T11:49:32;91.60;;;6.50;;
4895;SDS011;2463;49.948;8.472;2024-01-16T11:51:59;96.75;;;6.75;;
4895;SDS011;2463;49.948;8.472;2024-01-16T11:54:26;95.57;;;6.90;;
4895;SDS011;2463;49.948;8.472;2024-01-16T12:00:24;90.90;;;6.78;;
4895;SDS011;2463;49.948;8.472;2024-01-16T12:02:56;92.38;;;6.80;;
4895;SDS011;2463;49.948;8.472;2024-01-16T12:05:23;92.60;;;7.35;;
4895;SDS011;2463;49.948;8.472;2024-01-16T12:07:51;92.50;;;6.95;;
4895;SDS011;2463;49.948;8.472;2024-01-16T12:10:21;92.43;;;6.97;;
4895;SDS011;2463;49.948;8.472;2024-01-16T12:12:49;92.50;;;7.50;;
4895;SDS011;2463;49.948;8.472;2024-01-16T12:15:20;91.18;;;6.40;;
4895;SDS011;2463;49.948;8.472;2024-01-16T12:17:54;95.35;;;7.40;;
4895;SDS011;2463;49.948;8.472;2024-01-16T12:20:23;92.65;;;6.90;;
4895;SDS011;2463;49.948;8.472;2024-01-16T12:23:03;91.97;;;6.72;;
4895;SDS011;2463;49.948;8.472;2024-01-16T12:25:35;92.22;;;6.40;;
4895;SDS011;2463;49.948;8.472;2024-01-16T12:28:23;93.90;;;5.80;;
4895;SDS011;2463;49.948;8.472;2024-01-16T12:30:58;91.55;;;6.40;;
4895;SDS011;2463;49.948;8.472;2024-01-16T12:33:27;91.07;;;6.03;;
4895;SDS011;2463;49.948;8.472;2024-01-16T12:36:00;94.75;;;7.22;;
4895;SDS011;2463;49.948;8.472;2024-01-16T12:38:29;91.95;;;7.00;;
4895;SDS011;2463;49.948;8.472;2024-01-16T12:40:56;89.63;;;6.80;;
4895;SDS011;2463;49.948;8.472;2024-01-16T12:43:23;95.10;;;7.22;;
4895;SDS011;2463;49.948;8.472;2024-01-16T12:45:56;97.72;;;7.07;;
4895;SDS011;2463;49.948;8.472;2024-01-16T12:48:24;97.50;;;8.60;;
4895;SDS011;2463;49.948;8.472;2024-01-16T12:50:58;92.70;;;6.95;;
4895;SDS011;2463;49.948;8.472;2024-01-16T12:53:27;96.22;;;6.55;;
4895;SDS011;2463;49.948;8.472;2024-01-16T12:55:57;92.43;;;6.40;;
4895;SDS011;2463;49.948;8.472;2024-01-16T12:58:32;102.38;;;7.70;;
4895;SDS011;2463;49.948;8.472;2024-01-16T13:01:20;95.07;;;6.93;;
4895;SDS011;2463;49.948;8.472;2024-01-16T13:04:05;96.20;;;6.63;;
4895;SDS011;2463;49.948;8.472;2024-01-16T13:06:32;96.45;;;7.00;;
4895;SDS011;2463;49.948;8.472;2024-01-16T13:09:06;92.85;;;7.13;;
4895;SDS011;2463;49.948;8.472;2024-01-16T13:11:52;90.72;;;6.13;;
4895;SDS011;2463;49.948;8.472;2024-01-16T13:14:24;90.53;;;6.03;;
4895;SDS011;2463;49.948;8.472;2024-01-16T13:16:51;88.57;;;5.45;;
4895;SDS011;2463;49.948;8.472;2024-01-16T13:19:19;93.25;;;6.20;;
4895;SDS011;2463;49.948;8.472;2024-01-16T13:21:47;91.32;;;6.30;;
4895;SDS011;2463;49.948;8.472;2024-01-16T13:24:14;90.57;;;6.25;;
4895;SDS011;2463;49.948;8.472;2024-01-16T13:26:43;89.60;;;5.65;;
4895;SDS011;2463;49.948;8.472;2024-01-16T13:29:10;90.32;;;6.45;;
4895;SDS011;2463;49.948;8.472;2024-01-16T13:31:36;91.35;;;6.40;;
4895;SDS011;2463;49.948;8.472;2024-01-16T13:34:03;89.72;;;6.03;;
4895;SDS011;2463;49.948;8.472;2024-01-16T13:36:30;90.40;;;6.20;;
4895;SDS011;2463;49.948;8.472;2024-01-16T13:39:17;89.40;;;6.30;;
4895;SDS011;2463;49.948;8.472;2024-01-16T13:41:43;91.50;;;6.57;;
4895;SDS011;2463;49.948;8.472;2024-01-16T13:44:10;93.53;;;6.93;;
4895;SDS011;2463;49.948;8.472;2024-01-16T13:46:37;90.82;;;6.40;;
4895;SDS011;2463;49.948;8.472;2024-01-16T13:49:06;92.50;;;6.35;;
4895;SDS011;2463;49.948;8.472;2024-01-16T13:51:33;97.18;;;6.65;;
4895;SDS011;2463;49.948;8.472;2024-01-16T13:54:00;91.32;;;6.80;;
4895;SDS011;2463;49.948;8.472;2024-01-16T13:56:27;93.10;;;6.43;;
4895;SDS011;2463;49.948;8.472;2024-01-16T13:59:13;90.15;;;6.10;;
4895;SDS011;2463;49.948;8.472;2024-01-16T14:01:40;92.45;;;7.32;;
4895;SDS011;2463;49.948;8.472;2024-01-16T14:04:07;95.05;;;7.65;;
4895;SDS011;2463;49.948;8.472;2024-01-16T14:06:33;96.90;;;7.15;;
4895;SDS011;2463;49.948;8.472;2024-01-16T14:09:20;95.30;;;7.43;;
4895;SDS011;2463;49.948;8.472;2024-01-16T14:11:47;91.55;;;6.30;;
4895;SDS011;2463;49.948;8.472;2024-01-16T14:14:14;99.25;;;6.70;;
4895;SDS011;2463;49.948;8.472;2024-01-16T14:16:40;92.38;;;6.50;;
4895;SDS011;2463;49.948;8.472;2024-01-16T14:19:19;93.00;;;7.05;;
4895;SDS011;2463;49.948;8.472;2024-01-16T14:21:46;95.03;;;7.00;;
4895;SDS011;2463;49.948;8.472;2024-01-16T14:24:14;94.47;;;6.95;;
4895;SDS011;2463;49.948;8.472;2024-01-16T14:26:44;94.22;;;6.93;;
4895;SDS011;2463;49.948;8.472;2024-01-16T14:29:11;91.70;;;6.90;;
4895;SDS011;2463;49.948;8.472;2024-01-16T14:31:38;90.80;;;6.32;;
4895;SDS011;2463;49.948;8.472;2024-01-16T14:34:11;96.47;;;6.95;;
4895;SDS011;2463;49.948;8.472;2024-01-16T14:36:41;93.05;;;6.57;;
4895;SDS011;2463;49.948;8.472;2024-01-16T14:39:08;91.72;;;6.78;;
4895;SDS011;2463;49.948;8.472;2024-01-16T14:41:39;91.70;;;6.57;;
4895;SDS011;2463;49.948;8.472;2024-01-16T14:44:08;93.10;;;6.82;;
4895;SDS011;2463;49.948;8.472;2024-01-16T14:46:36;93.47;;;6.50;;
4895;SDS011;2463;49.948;8.472;2024-01-16T14:49:03;95.18;;;7.10;;
4895;SDS011;2463;49.948;8.472;2024-01-16T14:51:30;96.38;;;6.50;;
4895;SDS011;2463;49.948;8.472;2024-01-16T14:53:57;93.75;;;6.60;;
4895;SDS011;2463;49.948;8.472;2024-01-16T14:56:23;91.43;;;6.20;;
4895;SDS011;2463;49.948;8.472;2024-01-16T14:58:51;93.95;;;6.10;;
4895;SDS011;2463;49.948;8.472;2024-01-16T15:01:17;95.22;;;5.68;;
4895;SDS011;2463;49.948;8.472;2024-01-16T15:03:44;90.50;;;6.40;;
4895;SDS011;2463;49.948;8.472;2024-01-16T15:06:11;92.15;;;6.32;;
4895;SDS011;2463;49.948;8.472;2024-01-16T15:08:39;92.18;;;5.75;;
4895;SDS011;2463;49.948;8.472;2024-01-16T15:11:06;92.68;;;5.93;;
4895;SDS011;2463;49.948;8.472;2024-01-16T15:13:33;91.90;;;6.18;;
4895;SDS011;2463;49.948;8.472;2024-01-16T15:16:00;91.63;;;6.25;;
4895;SDS011;2463;49.948;8.472;2024-01-16T15:18:26;93.78;;;5.93;;
4895;SDS011;2463;49.948;8.472;2024-01-16T15:20:54;90.95;;;6.13;;
4895;SDS011;2463;49.948;8.472;2024-01-16T15:23:22;96.65;;;6.15;;